Time;durP1;ratioP1;P1;durP2;ratioP2;P2;SDS_P1;SDS_P2;PMS_P1;PMS_P2;Temp;Humidity;BMP_temperature;BMP_pressure;BME280_temperature;BME280_humidity;BME280_pressure;Samples;Min_cycle;Max_cycle;Signal;HPM_P1;HPM_P2
2022/08/28 00:01:11;;;;;;;7.13;4.20;;;19.90;99.90;;;;;;5074879;28;20469;-63
2022/08/28 00:03:37;;;;;;;4.80;3.60;;;20.00;99.90;;;;;;5067612;28;20045;-64
2022/08/28 00:06:04;;;;;;;5.82;4.00;;;20.00;99.90;;;;;;5052514;28;20045;-64
2022/08/28 00:08:30;;;;;;;5.97;3.65;;;19.90;99.90;;;;;;5054320;28;20124;-63
2022/08/28 00:10:56;;;;;;;5.43;4.32;;;19.90;99.90;;;;;;5054711;28;20056;-65
2022/08/28 00:13:24;;;;;;;10.90;4.05;;;19.90;99.90;;;;;;5054866;28;20037;-63
2022/08/28 00:15:54;;;;;;;5.43;3.90;;;19.90;99.90;;;;;;5054645;28;20131;-64
2022/08/28 00:18:21;;;;;;;5.32;4.32;;;19.90;99.90;;;;;;5054725;28;20051;-63
2022/08/28 00:20:48;;;;;;;5.28;3.85;;;20.00;99.90;;;;;;5054702;28;20079;-63
2022/08/28 00:23:14;;;;;;;5.70;3.58;;;19.90;99.90;;;;;;5054585;28;20037;-64
2022/08/28 00:25:40;;;;;;;5.30;4.35;;;19.70;99.90;;;;;;5054624;28;20094;-63
2022/08/28 00:28:09;;;;;;;6.93;4.22;;;19.60;99.90;;;;;;5054511;28;20060;-65
2022/08/28 00:30:42;;;;;;;7.25;4.47;;;19.60;99.90;;;;;;5054509;28;20043;-65
2022/08/28 00:33:21;;;;;;;4.93;3.38;;;19.70;99.90;;;;;;5054556;28;20045;-65
2022/08/28 00:35:48;;;;;;;4.03;3.38;;;19.40;99.90;;;;;;5053591;28;20024;-63
2022/08/28 00:38:16;;;;;;;6.60;3.75;;;19.40;99.90;;;;;;5054544;28;20445;-63
2022/08/28 00:40:43;;;;;;;6.53;4.50;;;19.40;99.90;;;;;;5054032;28;20105;-64
2022/08/28 00:43:10;;;;;;;6.20;4.28;;;19.50;99.90;;;;;;5054355;28;20040;-63
2022/08/28 00:45:36;;;;;;;6.82;4.70;;;19.40;99.90;;;;;;5054272;28;20045;-62
2022/08/28 00:48:03;;;;;;;6.78;4.55;;;19.60;99.90;;;;;;5054253;28;20556;-65
2022/08/28 00:53:17;;;;;;;5.28;4.30;;;19.60;99.90;;;;;;5053982;28;20036;-63
2022/08/28 00:55:43;;;;;;;6.38;4.75;;;19.60;99.90;;;;;;5054099;28;20044;-64
2022/08/28 00:58:10;;;;;;;7.68;4.57;;;19.70;99.90;;;;;;5053986;28;20040;-63
2022/08/28 01:00:38;;;;;;;8.15;4.63;;;19.60;99.90;;;;;;5053900;28;20106;-64
2022/08/28 01:03:05;;;;;;;6.32;4.32;;;19.50;99.90;;;;;;5054017;28;20043;-63
2022/08/28 01:05:33;;;;;;;5.85;4.22;;;19.50;99.90;;;;;;5053990;28;20048;-65
2022/08/28 01:08:00;;;;;;;5.45;4.05;;;19.60;99.90;;;;;;5053885;28;20048;-63
2022/08/28 01:10:29;;;;;;;5.85;4.35;;;19.60;99.90;;;;;;5053748;28;20566;-63
2022/08/28 01:12:56;;;;;;;5.28;3.88;;;19.60;99.90;;;;;;5053751;28;20056;-64
2022/08/28 01:15:28;;;;;;;8.88;4.47;;;19.50;99.90;;;;;;5053641;28;20503;-65
2022/08/28 01:17:58;;;;;;;4.90;3.58;;;19.50;99.90;;;;;;5053888;28;20492;-64
2022/08/28 01:20:33;;;;;;;6.45;4.72;;;19.40;99.90;;;;;;5053714;28;20045;-64
2022/08/28 01:23:10;;;;;;;10.43;4.43;;;19.40;99.90;;;;;;5053951;28;20033;-63
2022/08/28 01:25:37;;;;;;;6.22;4.53;;;19.40;99.90;;;;;;5053737;28;20072;-65
2022/08/28 01:28:07;;;;;;;6.30;4.47;;;19.50;99.90;;;;;;5053696;28;20060;-63
2022/08/28 01:30:33;;;;;;;7.83;4.70;;;19.30;99.90;;;;;;5053651;28;20065;-63
2022/08/28 01:32:59;;;;;;;6.50;4.25;;;19.30;99.90;;;;;;5053797;28;20566;-64
2022/08/28 01:35:30;;;;;;;8.00;4.97;;;19.20;99.90;;;;;;5053734;28;20048;-63
2022/08/28 01:37:56;;;;;;;;;;;19.20;99.90;;;;;;5054047;28;20126;-63
2022/08/28 01:40:39;;;;;;;8.90;4.30;;;19.20;99.90;;;;;;5053370;28;20012;-64
2022/08/28 01:43:12;;;;;;;6.20;4.72;;;19.10;99.90;;;;;;5053555;28;20048;-62
2022/08/28 01:45:41;;;;;;;10.88;5.03;;;19.00;99.90;;;;;;5053608;28;20037;-62
2022/08/28 01:48:07;;;;;;;6.55;4.10;;;19.10;99.90;;;;;;5057321;28;20037;-63
2022/08/28 01:50:34;;;;;;;7.03;4.80;;;19.20;99.90;;;;;;5057508;28;20140;-62
2022/08/28 01:53:01;;;;;;;6.22;4.68;;;19.20;99.90;;;;;;5057381;28;20086;-65
2022/08/28 01:55:27;;;;;;;6.65;4.05;;;19.10;99.90;;;;;;5057131;28;20032;-62
2022/08/28 01:57:54;;;;;;;6.65;4.78;;;18.90;99.90;;;;;;5057550;28;20035;-62
2022/08/28 02:00:25;;;;;;;5.10;4.15;;;18.80;99.90;;;;;;5057199;28;20416;-63
2022/08/28 02:02:52;;;;;;;7.07;4.63;;;18.90;99.90;;;;;;5057202;28;20033;-63
2022/08/28 02:05:18;;;;;;;6.88;4.68;;;19.00;99.90;;;;;;5057089;28;20489;-63
2022/08/28 02:07:44;;;;;;;7.68;4.38;;;18.90;99.90;;;;;;5057158;28;20041;-63
2022/08/28 02:10:10;;;;;;;7.20;4.70;;;19.00;99.90;;;;;;5057007;28;20037;-65
2022/08/28 02:12:37;;;;;;;5.88;3.95;;;18.90;99.90;;;;;;5057136;28;20499;-62
2022/08/28 02:15:07;;;;;;;6.32;4.68;;;19.00;99.90;;;;;;5057137;28;20384;-64
2022/08/28 02:17:33;;;;;;;6.57;4.43;;;18.90;99.90;;;;;;5057045;28;20592;-64
2022/08/28 02:19:59;;;;;;;4.93;3.78;;;19.00;99.90;;;;;;5056801;28;20049;-63
2022/08/28 02:22:25;;;;;;;6.32;4.25;;;19.00;99.90;;;;;;5056813;28;20033;-63
2022/08/28 02:24:51;;;;;;;8.38;4.18;;;18.80;99.90;;;;;;5056447;28;20048;-63
2022/08/28 02:27:17;;;;;;;6.53;4.63;;;18.90;99.90;;;;;;5056645;28;20204;-64
2022/08/28 02:29:43;;;;;;;9.90;4.35;;;18.90;99.90;;;;;;5056704;28;20052;-63
2022/08/28 02:32:10;;;;;;;7.25;4.57;;;18.90;99.90;;;;;;5056764;28;20037;-63
2022/08/28 02:34:36;;;;;;;5.40;4.22;;;18.80;99.90;;;;;;5056555;28;20565;-62
2022/08/28 02:37:02;;;;;;;5.60;3.97;;;18.80;99.90;;;;;;5056881;28;20029;-64
2022/08/28 02:39:28;;;;;;;6.88;4.85;;;18.80;99.90;;;;;;5056425;28;20052;-63
2022/08/28 02:41:54;;;;;;;7.03;5.03;;;18.80;99.90;;;;;;5056437;28;20171;-63
2022/08/28 02:44:20;;;;;;;7.65;5.25;;;18.90;99.90;;;;;;5056421;28;20033;-63
2022/08/28 02:46:46;;;;;;;7.88;5.43;;;18.90;99.90;;;;;;5056482;28;20033;-63
2022/08/28 02:49:11;;;;;;;7.35;5.22;;;19.00;99.90;;;;;;5056408;28;20202;-63
2022/08/28 02:51:38;;;;;;;7.25;4.45;;;19.00;99.90;;;;;;5056302;28;20044;-62
2022/08/28 02:54:03;;;;;;;5.65;4.28;;;18.80;99.90;;;;;;5056337;28;20033;-65
2022/08/28 02:56:29;;;;;;;6.57;4.85;;;18.60;99.90;;;;;;5056245;28;20044;-65
2022/08/28 02:58:57;;;;;;;7.47;5.00;;;18.60;99.90;;;;;;5055024;28;20143;-63
2022/08/28 03:01:22;;;;;;;7.05;4.85;;;18.80;99.90;;;;;;5072114;28;20131;-64
2022/08/28 03:03:48;;;;;;;8.60;4.78;;;18.90;99.90;;;;;;5075855;28;20530;-64
2022/08/28 03:06:15;;;;;;;8.73;5.18;;;;;;;;;;5075789;28;20071;-64
2022/08/28 03:08:43;;;;;;;9.23;5.40;;;19.00;99.90;;;;;;5075771;28;20503;-63
2022/08/28 03:11:10;;;;;;;5.80;3.47;;;18.80;99.90;;;;;;5075788;28;20036;-63
2022/08/28 03:13:37;;;;;;;7.97;5.20;;;18.60;99.90;;;;;;5076070;28;20045;-62
2022/08/28 03:16:03;;;;;;;6.35;4.38;;;18.60;99.90;;;;;;5075934;28;20365;-65
2022/08/28 03:18:31;;;;;;;6.10;4.47;;;18.40;99.90;;;;;;5075777;28;20135;-64
2022/08/28 03:20:57;;;;;;;6.95;4.63;;;18.30;99.90;;;;;;5075635;28;20040;-65
2022/08/28 03:23:26;;;;;;;7.13;4.85;;;18.30;99.90;;;;;;5075891;28;20040;-65
2022/08/28 03:26:11;;;;;;;9.52;5.40;;;18.40;99.90;;;;;;5075928;28;20044;-65
2022/08/28 03:28:43;;;;;;;6.20;3.97;;;18.50;99.90;;;;;;5075771;28;20048;-65
2022/08/28 03:31:12;;;;;;;7.57;4.70;;;18.30;99.90;;;;;;5075663;28;20086;-64
2022/08/28 03:33:40;;;;;;;5.68;4.10;;;18.30;99.90;;;;;;5075432;28;20094;-64
2022/08/28 03:36:08;;;;;;;7.85;4.40;;;18.40;99.90;;;;;;5075435;28;20090;-65
2022/08/28 03:38:34;;;;;;;8.30;5.07;;;18.40;99.90;;;;;;5074881;28;20048;-65
2022/08/28 03:41:00;;;;;;;8.80;4.70;;;18.50;99.90;;;;;;5075161;28;20499;-64
2022/08/28 03:43:27;;;;;;;7.78;4.85;;;18.40;99.90;;;;;;5075190;28;20068;-65
2022/08/28 03:45:59;;;;;;;8.52;4.60;;;18.30;99.90;;;;;;5075056;28;20040;-63
2022/08/28 03:48:28;;;;;;;6.75;4.80;;;18.10;99.90;;;;;;5074998;28;20036;-64
2022/08/28 03:50:54;;;;;;;5.70;4.82;;;17.90;99.90;;;;;;5075155;28;20106;-65
2022/08/28 03:53:26;;;;;;;10.05;5.20;;;17.80;99.90;;;;;;5075211;28;20071;-63
2022/08/28 03:55:53;;;;;;;9.30;5.47;;;17.80;99.90;;;;;;5075081;28;20412;-64
2022/08/28 03:58:19;;;;;;;7.88;5.18;;;17.90;99.90;;;;;;5075058;28;20395;-64
2022/08/28 04:00:45;;;;;;;8.68;5.70;;;17.90;99.90;;;;;;5074948;28;20503;-63
2022/08/28 04:03:11;;;;;;;8.38;5.57;;;17.80;99.90;;;;;;5074946;28;20029;-63
2022/08/28 04:05:41;;;;;;;6.72;4.70;;;17.70;99.90;;;;;;5073043;28;20054;-63
2022/08/28 04:08:08;;;;;;;7.55;5.25;;;17.80;99.90;;;;;;5063924;28;20063;-63
2022/08/28 04:10:35;;;;;;;8.32;5.13;;;17.70;99.90;;;;;;5053206;28;20048;-64
2022/08/28 04:13:02;;;;;;;8.30;5.47;;;17.60;99.90;;;;;;5054615;28;20111;-65
2022/08/28 04:15:28;;;;;;;7.78;5.20;;;17.70;99.90;;;;;;5054652;28;20098;-63
2022/08/28 04:17:54;;;;;;;7.85;4.60;;;17.90;99.90;;;;;;5054699;28;20118;-63
2022/08/28 04:20:20;;;;;;;11.48;5.22;;;;;;;;;;5054565;28;20460;-64
2022/08/28 04:22:47;;;;;;;5.88;4.45;;;18.00;99.90;;;;;;5054573;28;20488;-64
2022/08/28 04:25:14;;;;;;;10.20;6.57;;;18.00;99.90;;;;;;5054447;28;20083;-65
2022/08/28 04:27:40;;;;;;;9.32;5.70;;;17.90;99.90;;;;;;5054447;28;20119;-63
2022/08/28 04:30:08;;;;;;;8.90;5.38;;;17.90;99.90;;;;;;5054424;28;20033;-63
2022/08/28 04:32:35;;;;;;;8.23;5.70;;;17.90;99.90;;;;;;5054390;28;20036;-63
2022/08/28 04:35:01;;;;;;;7.97;5.78;;;18.00;99.90;;;;;;5054312;28;20090;-64
2022/08/28 04:37:27;;;;;;;9.10;5.35;;;17.90;99.90;;;;;;5054278;28;20047;-63
2022/08/28 04:39:53;;;;;;;8.73;5.55;;;18.00;99.90;;;;;;5054161;28;20416;-65
2022/08/28 04:42:18;;;;;;;8.85;4.95;;;18.00;99.90;;;;;;5056212;28;20399;-63
2022/08/28 04:44:44;;;;;;;7.25;5.47;;;17.80;99.90;;;;;;5062855;28;20141;-62
2022/08/28 04:47:10;;;;;;;7.80;5.32;;;17.70;99.90;;;;;;5054298;28;20181;-65
2022/08/28 04:49:36;;;;;;;7.43;5.13;;;17.80;99.90;;;;;;5054155;28;20503;-62
2022/08/28 04:52:02;;;;;;;7.88;5.18;;;17.90;99.90;;;;;;5052781;28;20090;-63
2022/08/28 04:54:28;;;;;;;7.85;5.32;;;17.90;99.90;;;;;;5054087;28;20094;-63
2022/08/28 04:56:54;;;;;;;7.88;5.53;;;18.10;99.90;;;;;;5053353;28;20040;-62
2022/08/28 04:59:20;;;;;;;6.97;5.30;;;18.20;99.90;;;;;;5053284;28;20056;-62
2022/08/28 05:01:46;;;;;;;8.18;5.90;;;18.40;99.90;;;;;;5053873;28;20045;-64
2022/08/28 05:04:12;;;;;;;12.52;5.60;;;18.30;99.90;;;;;;5053391;28;20127;-62
2022/08/28 05:06:44;;;;;;;8.98;5.82;;;18.30;99.90;;;;;;5052345;28;20072;-63
2022/08/28 05:09:11;;;;;;;8.02;5.45;;;18.40;99.90;;;;;;5052024;28;20409;-62
2022/08/28 05:11:36;;;;;;;8.48;5.60;;;18.40;99.90;;;;;;5052134;28;20041;-62
2022/08/28 05:14:08;;;;;;;7.20;4.78;;;18.30;99.90;;;;;;5052736;28;20045;-64
2022/08/28 05:16:46;;;;;;;6.18;4.25;;;18.20;99.90;;;;;;5052548;28;20044;-62
2022/08/28 05:19:13;;;;;;;8.98;5.25;;;18.20;99.90;;;;;;5052962;28;20076;-62
2022/08/28 05:21:39;;;;;;;9.55;5.45;;;18.30;99.90;;;;;;5054829;28;20634;-62
2022/08/28 05:24:06;;;;;;;6.05;4.35;;;18.40;99.90;;;;;;5057464;28;20116;-62
2022/08/28 05:26:32;;;;;;;10.77;5.20;;;18.30;99.90;;;;;;5057785;28;20040;-62
2022/08/28 05:28:58;;;;;;;7.00;5.22;;;18.20;99.90;;;;;;5057678;28;20041;-63
2022/08/28 05:31:26;;;;;;;5.35;4.35;;;18.20;99.90;;;;;;5057435;28;20083;-63
2022/08/28 05:33:52;;;;;;;6.05;4.22;;;18.30;99.90;;;;;;5056500;28;20040;-62
2022/08/28 05:36:21;;;;;;;8.80;5.40;;;18.40;99.90;;;;;;5056937;28;20122;-62
2022/08/28 05:38:47;;;;;;;8.25;5.13;;;18.50;99.90;;;;;;5056527;28;20037;-65
2022/08/28 05:41:22;;;;;;;8.90;5.72;;;18.50;99.90;;;;;;5057569;28;20103;-62
2022/08/28 05:43:48;;;;;;;9.30;5.47;;;18.40;99.90;;;;;;5057701;28;20049;-62
2022/08/28 05:46:16;;;;;;;9.23;5.68;;;18.40;99.90;;;;;;5057459;28;20128;-64
2022/08/28 05:48:44;;;;;;;9.23;5.93;;;18.50;99.90;;;;;;5057542;28;20037;-64
2022/08/28 05:51:13;;;;;;;9.10;5.63;;;18.70;99.90;;;;;;5056988;28;20534;-63
2022/08/28 05:53:42;;;;;;;8.00;5.65;;;19.10;99.90;;;;;;5057236;28;20037;-64
2022/08/28 05:56:10;;;;;;;8.43;5.78;;;19.30;99.90;;;;;;5057307;28;20041;-64
2022/08/28 05:58:36;;;;;;;7.65;5.05;;;19.40;99.90;;;;;;5056998;28;20039;-64
2022/08/28 06:01:15;;;;;;;11.60;5.03;;;19.20;99.90;;;;;;5056947;28;20440;-62
2022/08/28 06:03:44;;;;;;;7.57;5.47;;;18.90;99.90;;;;;;5057132;28;20036;-63
2022/08/28 06:06:11;;;;;;;8.73;5.75;;;18.80;99.90;;;;;;5057067;28;20040;-63
2022/08/28 06:08:38;;;;;;;8.88;5.93;;;18.80;99.90;;;;;;5057306;28;20392;-65
2022/08/28 06:11:06;;;;;;;11.68;5.53;;;18.80;99.90;;;;;;5057132;28;20453;-62
2022/08/28 06:13:33;;;;;;;8.73;5.25;;;18.90;99.90;;;;;;5056902;28;20480;-62
2022/08/28 06:15:58;;;;;;;8.48;5.38;;;19.00;99.90;;;;;;5056780;28;20044;-62
2022/08/28 06:18:25;;;;;;;6.93;5.22;;;19.50;99.90;;;;;;5057084;28;20167;-63
2022/08/28 06:20:51;;;;;;;8.80;5.95;;;19.80;99.90;;;;;;5056819;28;20043;-64
2022/08/28 06:23:19;;;;;;;8.25;5.45;;;20.10;99.90;;;;;;5056859;28;20041;-63
2022/08/28 06:25:48;;;;;;;7.60;5.28;;;20.40;99.90;;;;;;5056653;28;20037;-65
2022/08/28 06:28:17;;;;;;;7.38;5.30;;;20.60;99.90;;;;;;5056556;28;20037;-65
2022/08/28 06:30:44;;;;;;;9.45;6.07;;;20.90;99.90;;;;;;5056379;28;20037;-65
2022/08/28 06:33:11;;;;;;;8.75;5.43;;;21.10;99.90;;;;;;5053971;28;20040;-63
2022/08/28 06:35:41;;;;;;;7.20;5.45;;;;;;;;;;5056650;28;20051;-66
2022/08/28 06:38:08;;;;;;;8.90;5.07;;;21.30;99.90;;;;;;5056797;28;20044;-64
2022/08/28 06:40:39;;;;;;;8.23;5.45;;;21.50;99.90;;;;;;5056173;28;20411;-63
2022/08/28 06:43:07;;;;;;;8.57;5.28;;;21.60;99.90;;;;;;5073725;28;20064;-65
2022/08/28 06:45:34;;;;;;;7.35;5.53;;;;;;;;;;5075872;28;20591;-65
2022/08/28 06:48:00;;;;;;;7.13;4.63;;;21.40;99.90;;;;;;5076412;28;20491;-63
2022/08/28 06:50:26;;;;;;;8.80;5.55;;;21.30;99.90;;;;;;5076310;28;20051;-63
2022/08/28 06:52:52;;;;;;;12.30;5.18;;;21.40;99.90;;;;;;5076330;28;20115;-65
2022/08/28 06:55:18;;;;;;;7.07;4.82;;;21.60;99.90;;;;;;5076272;28;20070;-63
2022/08/28 06:57:43;;;;;;;5.72;4.60;;;21.90;99.90;;;;;;5076106;28;20044;-63
2022/08/28 07:00:10;;;;;;;7.53;5.30;;;22.10;99.90;;;;;;5076123;28;20519;-63
2022/08/28 07:02:36;;;;;;;7.93;5.32;;;21.90;99.90;;;;;;5076203;28;20131;-66
2022/08/28 07:05:02;;;;;;;7.68;4.68;;;22.10;99.90;;;;;;5076105;28;20086;-65
2022/08/28 07:07:28;;;;;;;9.13;5.40;;;22.10;99.90;;;;;;5076081;28;20036;-63
2022/08/28 07:09:53;;;;;;;11.60;5.32;;;22.00;99.90;;;;;;5076186;28;20040;-63
2022/08/28 07:12:19;;;;;;;6.63;4.80;;;21.90;99.90;;;;;;5075849;28;20040;-63
2022/08/28 07:14:45;;;;;;;7.90;5.20;;;21.90;99.90;;;;;;5075894;28;20496;-64
2022/08/28 07:17:11;;;;;;;6.13;4.60;;;22.10;99.90;;;;;;5075881;28;20519;-64
2022/08/28 07:19:40;;;;;;;5.68;4.63;;;22.30;99.90;;;;;;5075701;28;20568;-66
2022/08/28 07:22:05;;;;;;;8.20;5.25;;;22.80;99.90;;;;;;5075593;28;20051;-63
2022/08/28 07:24:31;;;;;;;7.50;5.35;;;22.80;99.90;;;;;;5075491;28;20450;-64
2022/08/28 07:26:57;;;;;;;6.45;4.53;;;22.70;99.90;;;;;;5075191;28;20601;-63
2022/08/28 07:29:23;;;;;;;5.38;4.45;;;22.90;99.90;;;;;;5073622;28;20032;-65
2022/08/28 07:31:51;;;;;;;6.57;4.57;;;23.00;99.90;;;;;;5073459;28;20365;-64
2022/08/28 07:34:19;;;;;;;6.30;4.40;;;23.30;99.90;;;;;;5073568;28;20036;-64
2022/08/28 07:36:45;;;;;;;6.95;4.70;;;23.20;99.90;;;;;;5073721;28;20098;-66
2022/08/28 07:39:13;;;;;;;7.07;4.40;;;23.30;99.90;;;;;;5072855;28;20511;-65
2022/08/28 07:41:41;;;;;;;7.38;4.75;;;23.50;99.90;;;;;;5073285;28;20055;-65
2022/08/28 07:46:58;;;;;;;5.80;4.20;;;23.60;99.90;;;;;;5072820;28;20039;-64
2022/08/28 07:49:24;;;;;;;6.82;4.40;;;23.70;99.90;;;;;;5071722;28;20055;-65
2022/08/28 07:51:50;;;;;;;6.53;4.53;;;23.50;99.90;;;;;;5073121;28;20119;-66
2022/08/28 07:54:16;;;;;;;5.22;4.05;;;23.70;99.90;;;;;;5074835;28;20044;-64
2022/08/28 07:56:42;;;;;;;9.20;5.90;;;23.80;99.90;;;;;;5074715;28;20039;-63
2022/08/28 07:59:10;;;;;;;6.95;4.40;;;23.70;99.90;;;;;;5074563;28;20055;-67
2022/08/28 08:01:40;;;;;;;8.00;5.18;;;;;;;;;;5073682;28;20078;-64
2022/08/28 08:04:08;;;;;;;9.07;4.88;;;24.10;99.90;;;;;;5072793;28;20568;-66
2022/08/28 08:06:36;;;;;;;5.40;4.30;;;24.30;99.90;;;;;;5074299;28;20080;-67
2022/08/28 08:09:04;;;;;;;6.57;4.97;;;24.60;99.90;;;;;;5072631;28;20403;-63
2022/08/28 08:11:31;;;;;;;7.05;4.70;;;24.60;99.90;;;;;;5066736;28;20044;-64
2022/08/28 08:14:00;;;;;;;7.43;4.90;;;24.80;99.90;;;;;;5052589;28;20040;-64
2022/08/28 08:16:26;;;;;;;6.82;4.90;;;25.10;99.90;;;;;;5052954;28;20124;-64
2022/08/28 08:18:52;;;;;;;7.22;4.65;;;25.00;99.90;;;;;;5052047;28;20448;-65
2022/08/28 08:21:20;;;;;;;7.53;4.93;;;;;;;;;;5052705;28;20049;-64
2022/08/28 08:23:47;;;;;;;5.93;4.47;;;25.20;99.90;;;;;;5054223;28;20040;-64
2022/08/28 08:26:16;;;;;;;6.75;4.25;;;25.00;99.90;;;;;;5053982;28;20051;-67
2022/08/28 08:28:43;;;;;;;8.68;5.07;;;25.50;99.90;;;;;;5052706;28;20045;-65
2022/08/28 08:31:13;;;;;;;7.03;4.93;;;25.60;99.90;;;;;;5051930;28;20040;-64
2022/08/28 08:33:43;;;;;;;6.47;4.68;;;25.80;99.90;;;;;;5052372;28;20400;-65
2022/08/28 08:36:11;;;;;;;5.57;4.28;;;26.00;99.90;;;;;;5051996;28;20087;-66
2022/08/28 08:38:37;;;;;;;6.18;4.47;;;25.80;99.90;;;;;;5052196;28;20047;-66
2022/08/28 08:41:46;;;;;;;6.85;4.80;;;25.80;99.90;;;;;;5051916;28;20048;-64
2022/08/28 08:44:25;;;;;;;5.90;4.55;;;;;;;;;;5042798;28;20403;-65
2022/08/28 08:47:15;;;;;;;8.80;4.95;;;26.20;99.90;;;;;;5071731;28;20048;-65
2022/08/28 08:49:56;;;;;;;8.93;4.25;;;26.20;99.90;;;;;;5072147;28;20032;-65
2022/08/28 08:52:33;;;;;;;;;;;26.20;99.80;;;;;;5072744;28;20109;-64
2022/08/28 08:55:22;;;;;;;5.50;4.50;;;26.50;99.90;;;;;;5071798;28;19914;-64
2022/08/28 08:57:55;;;;;;;6.03;4.30;;;26.00;99.90;;;;;;5071047;28;20040;-64
2022/08/28 09:00:21;;;;;;;6.47;4.65;;;26.00;99.10;;;;;;5071693;28;20052;-64
2022/08/28 09:02:57;;;;;;;5.75;4.20;;;25.80;99.90;;;;;;5072158;28;20403;-67
2022/08/28 09:05:39;;;;;;;6.38;4.38;;;26.40;99.90;;;;;;5071935;28;20063;-64
2022/08/28 09:08:06;;;;;;;6.38;4.65;;;26.90;99.50;;;;;;5072362;28;20032;-67
2022/08/28 09:10:41;;;;;;;5.75;4.35;;;26.80;98.90;;;;;;5073473;28;20039;-64
2022/08/28 09:13:23;;;;;;;8.18;4.68;;;27.10;98.30;;;;;;5071271;28;20036;-66
2022/08/28 09:15:50;;;;;;;5.45;3.92;;;27.20;98.00;;;;;;5072185;28;20048;-65
2022/08/28 09:18:33;;;;;;;6.45;4.68;;;26.60;98.20;;;;;;5072891;28;20396;-64
2022/08/28 09:20:59;;;;;;;4.70;3.83;;;26.90;98.20;;;;;;5071259;28;20056;-64
2022/08/28 09:23:27;;;;;;;7.43;4.55;;;27.00;98.10;;;;;;5071687;28;20032;-64
2022/08/28 09:26:10;;;;;;;7.15;4.25;;;26.70;98.20;;;;;;5070894;28;20036;-67
2022/08/28 09:28:39;;;;;;;5.45;4.20;;;27.00;98.10;;;;;;5071441;28;20032;-66
2022/08/28 09:31:14;;;;;;;6.75;4.68;;;27.20;97.80;;;;;;5071314;28;20060;-64
2022/08/28 09:33:43;;;;;;;6.40;4.50;;;26.60;97.60;;;;;;5071496;28;20051;-64
2022/08/28 09:36:23;;;;;;;7.18;4.97;;;26.60;97.70;;;;;;5070916;28;20033;-64
2022/08/28 09:39:18;;;;;;;6.43;4.73;;;26.60;98.50;;;;;;5073403;28;20042;-64
2022/08/28 09:44:28;;;;;;;5.70;4.30;;;26.90;97.50;;;;;;5052550;28;20589;-64
2022/08/28 09:46:54;;;;;;;7.68;4.88;;;27.40;97.50;;;;;;5070180;28;20051;-63
2022/08/28 09:49:29;;;;;;;7.00;4.20;;;26.80;97.40;;;;;;5070630;28;20040;-63
2022/08/28 09:51:58;;;;;;;5.30;4.00;;;26.70;97.50;;;;;;5069878;28;20504;-63
2022/08/28 09:54:40;;;;;;;4.82;3.88;;;27.20;97.30;;;;;;5069224;28;20123;-64
2022/08/28 09:57:07;;;;;;;151.10;56.72;;;27.20;97.20;;;;;;5069681;28;20161;-63
2022/08/28 09:59:33;;;;;;;9.60;6.53;;;27.00;96.50;;;;;;5068477;28;20060;-64
2022/08/28 10:02:32;;;;;;;13.93;5.40;;;26.90;96.90;;;;;;5057681;28;20041;-63
2022/08/28 10:05:08;;;;;;;8.10;5.15;;;27.10;96.40;;;;;;5049977;28;20597;-65
2022/08/28 10:07:43;;;;;;;8.25;5.30;;;27.50;96.30;;;;;;5051593;28;20067;-64
2022/08/28 10:10:33;;;;;;;6.38;4.43;;;26.70;96.50;;;;;;5055370;28;20041;-64
2022/08/28 10:13:10;;;;;;;5.38;3.85;;;26.80;97.60;;;;;;5054225;28;20170;-65
2022/08/28 10:15:39;;;;;;;5.28;4.63;;;27.70;98.70;;;;;;5068778;28;20044;-64
2022/08/28 10:18:55;;;;;;;6.00;4.28;;;28.30;96.00;;;;;;5071802;28;20033;-64
2022/08/28 10:21:42;;;;;;;7.55;3.95;;;27.70;94.70;;;;;;5060957;28;20056;-63
2022/08/28 10:24:17;;;;;;;5.93;4.13;;;27.10;94.90;;;;;;5063939;28;20037;-64
2022/08/28 10:26:53;;;;;;;5.00;4.15;;;27.40;95.20;;;;;;5072603;28;20032;-64
2022/08/28 10:29:36;;;;;;;4.53;3.65;;;27.30;94.40;;;;;;5072365;28;20036;-66
2022/08/28 10:32:24;;;;;;;5.88;4.15;;;27.40;94.80;;;;;;5071915;28;20076;-66
2022/08/28 10:35:10;;;;;;;5.65;4.05;;;26.60;95.20;;;;;;5075257;28;20533;-64
2022/08/28 10:37:50;;;;;;;5.85;3.78;;;27.00;94.70;;;;;;5073713;28;20032;-65
2022/08/28 10:40:30;;;;;;;5.90;4.28;;;27.30;94.00;;;;;;5073863;28;20051;-64
2022/08/28 10:43:15;;;;;;;;;;;26.80;94.40;;;;;;5074410;28;20068;-64
2022/08/28 10:45:42;;;;;;;6.32;4.00;;;26.60;94.70;;;;;;5073013;28;19908;-66
2022/08/28 10:48:23;;;;;;;4.57;3.75;;;26.40;94.90;;;;;;5073950;28;20123;-65
2022/08/28 10:51:12;;;;;;;5.50;3.90;;;26.70;94.70;;;;;;5074274;28;20040;-65
2022/08/28 10:53:54;;;;;;;5.80;4.00;;;27.30;94.10;;;;;;5072987;28;20052;-66
2022/08/28 10:56:45;;;;;;;4.72;3.70;;;26.40;94.20;;;;;;5075261;28;20127;-64
2022/08/28 10:59:14;;;;;;;5.80;3.80;;;26.90;94.20;;;;;;5072569;28;20045;-65
2022/08/28 11:01:41;;;;;;;6.40;4.47;;;26.70;93.80;;;;;;5074065;28;20087;-64
2022/08/28 11:04:21;;;;;;;5.93;4.53;;;27.30;93.80;;;;;;5073635;28;20037;-66
2022/08/28 11:06:54;;;;;;;6.75;4.43;;;26.50;93.80;;;;;;5071289;28;20102;-66
2022/08/28 11:09:37;;;;;;;6.32;4.05;;;26.70;93.40;;;;;;5074019;28;20384;-64
2022/08/28 11:12:34;;;;;;;5.38;4.03;;;27.10;93.10;;;;;;5074860;28;20033;-66
2022/08/28 11:15:41;;;;;;;6.32;4.32;;;27.10;99.90;;;;;;5073031;28;20036;-65
2022/08/28 11:18:12;;;;;;;5.45;3.88;;;27.40;99.90;;;;;;5071406;28;20118;-67
2022/08/28 11:20:56;;;;;;;4.28;3.35;;;27.50;99.80;;;;;;5071759;28;20488;-64
2022/08/28 11:23:39;;;;;;;10.60;4.05;;;27.80;91.80;;;;;;5072927;28;20036;-64
2022/08/28 11:26:11;;;;;;;6.35;3.92;;;27.70;92.20;;;;;;5072766;28;20041;-66
2022/08/28 11:28:46;;;;;;;4.18;3.53;;;27.50;91.80;;;;;;5074328;28;20444;-65
2022/08/28 11:31:25;;;;;;;4.40;3.58;;;27.10;91.60;;;;;;5072665;28;20128;-65
2022/08/28 11:33:57;;;;;;;4.75;3.70;;;27.40;91.70;;;;;;5073714;28;20047;-66
2022/08/28 11:36:28;;;;;;;4.85;3.40;;;27.80;91.60;;;;;;5072799;28;20426;-65
2022/08/28 11:38:54;;;;;;;3.47;3.00;;;27.50;91.60;;;;;;5072592;28;20131;-65
2022/08/28 11:41:37;;;;;;;4.07;3.33;;;27.60;91.70;;;;;;5073011;28;20175;-65
2022/08/28 11:44:39;;;;;;;6.20;3.63;;;27.90;91.20;;;;;;5072209;28;20040;-66
2022/08/28 11:47:35;;;;;;;3.85;2.90;;;27.40;90.80;;;;;;5072814;28;20041;-65
2022/08/28 11:50:27;;;;;;;5.20;3.55;;;27.40;90.90;;;;;;5072283;28;20062;-65
2022/08/28 11:53:12;;;;;;;4.80;3.80;;;27.70;91.20;;;;;;5067184;28;20111;-65
2022/08/28 11:55:53;;;;;;;4.82;3.50;;;27.90;91.40;;;;;;5072766;28;20032;-65
2022/08/28 11:58:40;;;;;;;4.35;3.30;;;28.10;90.70;;;;;;5053788;28;20605;-67
2022/08/28 12:01:13;;;;;;;4.30;3.30;;;28.10;90.70;;;;;;5051143;28;20063;-65
2022/08/28 12:04:01;;;;;;;5.07;3.22;;;28.00;90.20;;;;;;5052681;28;20041;-65
2022/08/28 12:06:48;;;;;;;3.65;3.08;;;27.00;90.20;;;;;;5052684;28;20045;-64
2022/08/28 12:09:36;;;;;;;6.30;3.97;;;27.30;90.50;;;;;;5064509;28;20033;-65
2022/08/28 12:12:03;;;;;;;4.00;3.13;;;27.20;90.10;;;;;;5071428;28;20365;-64
2022/08/28 12:14:30;;;;;;;3.50;2.72;;;27.50;90.80;;;;;;5072989;28;20044;-65
2022/08/28 12:16:58;;;;;;;5.20;3.58;;;28.20;90.00;;;;;;5071882;28;20040;-64
2022/08/28 12:19:44;;;;;;;4.13;2.88;;;27.90;89.90;;;;;;5072670;28;20040;-64
2022/08/28 12:22:20;;;;;;;5.80;3.67;;;27.80;90.20;;;;;;5073871;28;20041;-65
2022/08/28 12:25:01;;;;;;;4.28;3.10;;;27.70;89.90;;;;;;5072275;28;20037;-63
2022/08/28 12:27:29;;;;;;;4.88;3.60;;;27.40;90.10;;;;;;5071817;28;20040;-66
2022/08/28 12:29:58;;;;;;;4.22;3.50;;;26.70;90.40;;;;;;5071915;28;20123;-64
2022/08/28 12:32:52;;;;;;;4.03;3.13;;;26.70;91.00;;;;;;5072503;28;20040;-64
2022/08/28 12:35:26;;;;;;;4.43;3.20;;;27.10;90.60;;;;;;5072096;28;20500;-65
2022/08/28 12:37:52;;;;;;;6.00;3.88;;;27.00;90.40;;;;;;5072147;28;20094;-65
2022/08/28 12:40:36;;;;;;;4.88;3.35;;;27.30;90.40;;;;;;5072214;28;20052;-65
2022/08/28 12:43:06;;;;;;;4.45;3.50;;;26.40;90.40;;;;;;5071162;28;20078;-64
2022/08/28 12:45:44;;;;;;;3.75;2.92;;;26.50;90.90;;;;;;5071713;28;20117;-65
2022/08/28 12:48:31;;;;;;;4.28;3.22;;;26.50;90.90;;;;;;5071204;28;20380;-65
2022/08/28 12:51:01;;;;;;;5.03;3.67;;;26.50;91.10;;;;;;5070445;28;20119;-64
2022/08/28 12:53:35;;;;;;;;;;;26.50;90.60;;;;;;5072160;28;20066;-65
2022/08/28 12:56:01;;;;;;;5.28;3.35;;;26.40;91.10;;;;;;5071095;28;19972;-65
2022/08/28 12:58:33;;;;;;;4.18;3.60;;;26.50;91.00;;;;;;5070764;28;20515;-66
2022/08/28 13:01:05;;;;;;;4.05;2.97;;;26.60;90.80;;;;;;5071119;28;20462;-65
2022/08/28 13:03:32;;;;;;;4.28;3.40;;;26.80;90.80;;;;;;5070131;28;20059;-65
2022/08/28 13:06:05;;;;;;;6.38;3.70;;;26.90;90.60;;;;;;5071625;28;20040;-66
2022/08/28 13:08:32;;;;;;;8.52;3.33;;;27.10;90.30;;;;;;5071737;28;20032;-65
2022/08/28 13:10:59;;;;;;;4.45;3.45;;;27.20;90.00;;;;;;5073409;28;20504;-65
2022/08/28 13:13:34;;;;;;;4.00;3.28;;;;;;;;;;5070961;28;20091;-65
2022/08/28 13:16:11;;;;;;;5.20;3.17;;;28.00;88.60;;;;;;5071310;28;20044;-65
2022/08/28 13:18:51;;;;;;;3.60;3.10;;;27.90;88.90;;;;;;5070798;28;20469;-66